sensor_id;sensor_type;location;lat;lon;timestamp;temperature;humidity
49222;DHT22;35047;37.588;-122.048;2024-03-23T00:53:26;21.10;63.60
49222;DHT22;35047;37.588;-122.048;2024-03-23T00:55:52;21.10;63.90
49222;DHT22;35047;37.588;-122.048;2024-03-23T00:58:18;21.10;63.80
49222;DHT22;35047;37.588;-122.048;2024-03-23T01:00:44;21.00;63.30
49222;DHT22;35047;37.588;-122.048;2024-03-23T01:03:10;21.00;64.00
49222;DHT22;35047;37.588;-122.048;2024-03-23T01:05:36;21.00;64.60
49222;DHT22;35047;37.588;-122.048;2024-03-23T01:08:03;21.00;66.20
49222;DHT22;35047;37.588;-122.048;2024-03-23T01:10:29;21.00;66.50
49222;DHT22;35047;37.588;-122.048;2024-03-23T01:12:56;20.90;66.10
49222;DHT22;35047;37.588;-122.048;2024-03-23T01:15:22;20.90;66.40
49222;DHT22;35047;37.588;-122.048;2024-03-23T01:17:48;21.00;66.50
49222;DHT22;35047;37.588;-122.048;2024-03-23T01:20:15;20.90;67.80
49222;DHT22;35047;37.588;-122.048;2024-03-23T01:22:42;20.80;67.30
49222;DHT22;35047;37.588;-122.048;2024-03-23T01:25:08;20.70;67.50
49222;DHT22;35047;37.588;-122.048;2024-03-23T01:27:34;20.70;68.40
49222;DHT22;35047;37.588;-122.048;2024-03-23T01:30:00;20.60;68.30
49222;DHT22;35047;37.588;-122.048;2024-03-23T01:32:26;20.60;68.70
49222;DHT22;35047;37.588;-122.048;2024-03-23T01:34:52;20.50;68.70
49222;DHT22;35047;37.588;-122.048;2024-03-23T01:37:18;20.50;68.90
49222;DHT22;35047;37.588;-122.048;2024-03-23T01:39:44;20.40;69.80
49222;DHT22;35047;37.588;-122.048;2024-03-23T01:42:10;20.40;69.70
49222;DHT22;35047;37.588;-122.048;2024-03-23T01:44:36;20.30;69.60
49222;DHT22;35047;37.588;-122.048;2024-03-23T01:47:03;20.30;69.50
49222;DHT22;35047;37.588;-122.048;2024-03-23T01:49:29;20.20;69.30
49222;DHT22;35047;37.588;-122.048;2024-03-23T01:51:56;20.20;69.50
49222;DHT22;35047;37.588;-122.048;2024-03-23T01:54:22;20.10;69.50
49222;DHT22;35047;37.588;-122.048;2024-03-23T01:56:48;20.00;69.60
49222;DHT22;35047;37.588;-122.048;2024-03-23T01:59:15;20.10;69.20
49222;DHT22;35047;37.588;-122.048;2024-03-23T02:01:41;20.10;71.20
49222;DHT22;35047;37.588;-122.048;2024-03-23T02:04:07;20.10;71.30
49222;DHT22;35047;37.588;-122.048;2024-03-23T02:06:34;20.10;70.90
49222;DHT22;35047;37.588;-122.048;2024-03-23T02:09:01;20.00;71.10
49222;DHT22;35047;37.588;-122.048;2024-03-23T02:11:27;20.00;70.60
49222;DHT22;35047;37.588;-122.048;2024-03-23T02:13:53;19.90;71.00
49222;DHT22;35047;37.588;-122.048;2024-03-23T02:16:20;19.90;70.80
49222;DHT22;35047;37.588;-122.048;2024-03-23T02:18:46;19.90;70.80
49222;DHT22;35047;37.588;-122.048;2024-03-23T02:21:12;19.80;70.50
49222;DHT22;35047;37.588;-122.048;2024-03-23T02:23:38;19.80;70.80
49222;DHT22;35047;37.588;-122.048;2024-03-23T02:26:04;19.80;70.00
49222;DHT22;35047;37.588;-122.048;2024-03-23T02:28:30;19.80;70.30
49222;DHT22;35047;37.588;-122.048;2024-03-23T02:30:56;19.80;70.40
49222;DHT22;35047;37.588;-122.048;2024-03-23T02:33:22;19.80;70.50
49222;DHT22;35047;37.588;-122.048;2024-03-23T02:35:49;19.80;70.10
49222;DHT22;35047;37.588;-122.048;2024-03-23T02:38:15;19.70;70.10
49222;DHT22;35047;37.588;-122.048;2024-03-23T02:40:41;19.70;71.30
49222;DHT22;35047;37.588;-122.048;2024-03-23T02:43:07;19.70;71.90
49222;DHT22;35047;37.588;-122.048;2024-03-23T02:45:33;19.70;73.70
49222;DHT22;35047;37.588;-122.048;2024-03-23T02:47:59;19.60;74.00
49222;DHT22;35047;37.588;-122.048;2024-03-23T02:50:25;19.60;76.20
49222;DHT22;35047;37.588;-122.048;2024-03-23T02:52:51;19.60;76.20
49222;DHT22;35047;37.588;-122.048;2024-03-23T02:55:21;19.50;77.20
49222;DHT22;35047;37.588;-122.048;2024-03-23T02:57:47;19.40;79.80
49222;DHT22;35047;37.588;-122.048;2024-03-23T03:00:13;19.40;78.80
49222;DHT22;35047;37.588;-122.048;2024-03-23T03:02:39;19.30;79.00
49222;DHT22;35047;37.588;-122.048;2024-03-23T03:05:05;19.30;79.90
49222;DHT22;35047;37.588;-122.048;2024-03-23T03:07:32;19.20;79.00
49222;DHT22;35047;37.588;-122.048;2024-03-23T03:09:58;19.10;79.10
49222;DHT22;35047;37.588;-122.048;2024-03-23T03:12:24;19.10;79.90
49222;DHT22;35047;37.588;-122.048;2024-03-23T03:14:50;19.00;80.00
49222;DHT22;35047;37.588;-122.048;2024-03-23T03:17:16;18.90;80.60
49222;DHT22;35047;37.588;-122.048;2024-03-23T03:19:42;18.90;80.90
49222;DHT22;35047;37.588;-122.048;2024-03-23T03:22:09;18.90;84.00
49222;DHT22;35047;37.588;-122.048;2024-03-23T03:24:35;18.80;83.60
49222;DHT22;35047;37.588;-122.048;2024-03-23T03:27:01;18.70;85.00
49222;DHT22;35047;37.588;-122.048;2024-03-23T03:29:29;18.50;87.10
49222;DHT22;35047;37.588;-122.048;2024-03-23T03:32:02;18.50;87.50
49222;DHT22;35047;37.588;-122.048;2024-03-23T03:34:28;18.30;88.40
49222;DHT22;35047;37.588;-122.048;2024-03-23T03:36:54;18.20;88.60
49222;DHT22;35047;37.588;-122.048;2024-03-23T03:39:21;18.10;89.50
49222;DHT22;35047;37.588;-122.048;2024-03-23T03:41:48;18.00;89.10
49222;DHT22;35047;37.588;-122.048;2024-03-23T03:44:14;17.90;90.20
49222;DHT22;35047;37.588;-122.048;2024-03-23T03:46:40;17.80;90.10
49222;DHT22;35047;37.588;-122.048;2024-03-23T03:49:07;17.80;90.20
49222;DHT22;35047;37.588;-122.048;2024-03-23T03:51:33;17.70;90.40
49222;DHT22;35047;37.588;-122.048;2024-03-23T03:53:59;17.60;90.30
49222;DHT22;35047;37.588;-122.048;2024-03-23T03:56:25;17.50;90.30
49222;DHT22;35047;37.588;-122.048;2024-03-23T03:58:51;17.50;90.50
49222;DHT22;35047;37.588;-122.048;2024-03-23T04:01:17;17.40;91.00
49222;DHT22;35047;37.588;-122.048;2024-03-23T04:03:43;17.40;90.60
49222;DHT22;35047;37.588;-122.048;2024-03-23T04:06:09;17.40;90.70
49222;DHT22;35047;37.588;-122.048;2024-03-23T04:08:35;17.30;90.40
49222;DHT22;35047;37.588;-122.048;2024-03-23T04:11:01;17.20;90.30
49222;DHT22;35047;37.588;-122.048;2024-03-23T04:13:31;17.30;90.70
49222;DHT22;35047;37.588;-122.048;2024-03-23T04:16:07;17.20;90.30
49222;DHT22;35047;37.588;-122.048;2024-03-23T04:18:37;17.20;90.50
49222;DHT22;35047;37.588;-122.048;2024-03-23T04:21:03;17.20;90.70
49222;DHT22;35047;37.588;-122.048;2024-03-23T04:23:29;17.10;90.50
49222;DHT22;35047;37.588;-122.048;2024-03-23T04:25:55;17.10;90.60
49222;DHT22;35047;37.588;-122.048;2024-03-23T04:28:21;17.10;90.50
49222;DHT22;35047;37.588;-122.048;2024-03-23T04:30:47;17.10;90.30
49222;DHT22;35047;37.588;-122.048;2024-03-23T04:33:13;17.10;90.40
49222;DHT22;35047;37.588;-122.048;2024-03-23T04:35:39;17.00;90.80
49222;DHT22;35047;37.588;-122.048;2024-03-23T04:38:07;17.10;90.90
49222;DHT22;35047;37.588;-122.048;2024-03-23T04:40:33;17.10;90.90
49222;DHT22;35047;37.588;-122.048;2024-03-23T04:42:59;17.10;90.70
49222;DHT22;35047;37.588;-122.048;2024-03-23T04:45:26;17.10;91.00
49222;DHT22;35047;37.588;-122.048;2024-03-23T04:47:52;17.10;91.00
49222;DHT22;35047;37.588;-122.048;2024-03-23T04:50:19;17.10;90.90
49222;DHT22;35047;37.588;-122.048;2024-03-23T04:52:45;17.10;91.00
49222;DHT22;35047;37.588;-122.048;2024-03-23T04:55:11;17.10;91.00
49222;DHT22;35047;37.588;-122.048;2024-03-23T04:57:37;17.10;91.10
49222;DHT22;35047;37.588;-122.048;2024-03-23T05:00:04;17.10;91.00
49222;DHT22;35047;37.588;-122.048;2024-03-23T05:02:38;17.10;91.10
49222;DHT22;35047;37.588;-122.048;2024-03-23T05:05:04;17.10;91.00
49222;DHT22;35047;37.588;-122.048;2024-03-23T05:07:32;17.10;90.90
49222;DHT22;35047;37.588;-122.048;2024-03-23T05:09:59;17.10;90.70
49222;DHT22;35047;37.588;-122.048;2024-03-23T05:12:25;17.00;90.70
49222;DHT22;35047;37.588;-122.048;2024-03-23T05:14:51;17.00;90.70
49222;DHT22;35047;37.588;-122.048;2024-03-23T05:17:18;17.00;90.70
49222;DHT22;35047;37.588;-122.048;2024-03-23T05:19:44;17.00;90.70
49222;DHT22;35047;37.588;-122.048;2024-03-23T05:22:10;17.00;90.60
49222;DHT22;35047;37.588;-122.048;2024-03-23T05:24:36;17.00;90.50
49222;DHT22;35047;37.588;-122.048;2024-03-23T05:27:02;17.00;90.60
49222;DHT22;35047;37.588;-122.048;2024-03-23T05:29:28;17.00;90.80
49222;DHT22;35047;37.588;-122.048;2024-03-23T05:31:55;17.00;91.00
49222;DHT22;35047;37.588;-122.048;2024-03-23T05:34:22;17.00;91.10
49222;DHT22;35047;37.588;-122.048;2024-03-23T05:36:48;17.00;91.10
49222;DHT22;35047;37.588;-122.048;2024-03-23T05:39:16;17.00;91.10
49222;DHT22;35047;37.588;-122.048;2024-03-23T05:41:42;17.00;90.90
49222;DHT22;35047;37.588;-122.048;2024-03-23T05:44:08;17.00;90.70
49222;DHT22;35047;37.588;-122.048;2024-03-23T05:46:36;17.00;90.90
49222;DHT22;35047;37.588;-122.048;2024-03-23T05:49:02;17.00;90.90
49222;DHT22;35047;37.588;-122.048;2024-03-23T05:51:28;17.00;90.80
49222;DHT22;35047;37.588;-122.048;2024-03-23T05:53:54;17.00;90.70
49222;DHT22;35047;37.588;-122.048;2024-03-23T05:56:20;17.00;91.90
49222;DHT22;35047;37.588;-122.048;2024-03-23T05:58:46;17.00;91.40
49222;DHT22;35047;37.588;-122.048;2024-03-23T06:01:14;17.00;92.10
49222;DHT22;35047;37.588;-122.048;2024-03-23T06:03:40;17.00;91.50
49222;DHT22;35047;37.588;-122.048;2024-03-23T06:06:06;16.90;91.50
49222;DHT22;35047;37.588;-122.048;2024-03-23T06:08:37;16.90;92.20
49222;DHT22;35047;37.588;-122.048;2024-03-23T06:11:04;16.80;91.40
49222;DHT22;35047;37.588;-122.048;2024-03-23T06:13:32;16.80;91.10
49222;DHT22;35047;37.588;-122.048;2024-03-23T06:15:59;16.80;91.20
49222;DHT22;35047;37.588;-122.048;2024-03-23T06:18:25;16.80;91.30
49222;DHT22;35047;37.588;-122.048;2024-03-23T06:20:52;16.70;91.60
49222;DHT22;35047;37.588;-122.048;2024-03-23T06:23:18;16.80;92.50
49222;DHT22;35047;37.588;-122.048;2024-03-23T06:25:46;16.80;92.20
49222;DHT22;35047;37.588;-122.048;2024-03-23T06:28:12;16.80;91.90
49222;DHT22;35047;37.588;-122.048;2024-03-23T06:30:38;16.70;92.30
49222;DHT22;35047;37.588;-122.048;2024-03-23T06:33:04;16.60;91.50
49222;DHT22;35047;37.588;-122.048;2024-03-23T06:35:31;16.60;91.80
49222;DHT22;35047;37.588;-122.048;2024-03-23T06:37:57;16.60;91.50
49222;DHT22;35047;37.588;-122.048;2024-03-23T06:40:26;16.50;91.50
49222;DHT22;35047;37.588;-122.048;2024-03-23T06:42:52;16.60;91.80
49222;DHT22;35047;37.588;-122.048;2024-03-23T06:45:18;16.50;92.00
49222;DHT22;35047;37.588;-122.048;2024-03-23T06:47:49;16.50;91.80
49222;DHT22;35047;37.588;-122.048;2024-03-23T06:50:18;16.50;91.90
49222;DHT22;35047;37.588;-122.048;2024-03-23T06:52:44;16.50;91.70
49222;DHT22;35047;37.588;-122.048;2024-03-23T06:55:10;16.50;91.90
49222;DHT22;35047;37.588;-122.048;2024-03-23T06:57:36;16.50;92.40
49222;DHT22;35047;37.588;-122.048;2024-03-23T07:00:03;16.50;92.10
49222;DHT22;35047;37.588;-122.048;2024-03-23T07:02:29;16.50;92.20
49222;DHT22;35047;37.588;-122.048;2024-03-23T07:04:55;16.50;92.20
49222;DHT22;35047;37.588;-122.048;2024-03-23T07:07:22;16.50;92.30
49222;DHT22;35047;37.588;-122.048;2024-03-23T07:09:48;16.50;92.50
49222;DHT22;35047;37.588;-122.048;2024-03-23T07:12:14;16.50;92.20
49222;DHT22;35047;37.588;-122.048;2024-03-23T07:14:41;16.50;92.20
49222;DHT22;35047;37.588;-122.048;2024-03-23T07:17:07;16.40;92.10
49222;DHT22;35047;37.588;-122.048;2024-03-23T07:19:33;16.40;92.10
49222;DHT22;35047;37.588;-122.048;2024-03-23T07:21:59;16.40;91.80
49222;DHT22;35047;37.588;-122.048;2024-03-23T07:24:25;16.50;92.60
49222;DHT22;35047;37.588;-122.048;2024-03-23T07:26:51;16.50;92.40
49222;DHT22;35047;37.588;-122.048;2024-03-23T07:29:19;16.40;91.90
49222;DHT22;35047;37.588;-122.048;2024-03-23T07:31:45;16.40;91.70
49222;DHT22;35047;37.588;-122.048;2024-03-23T07:34:12;16.40;91.80
49222;DHT22;35047;37.588;-122.048;2024-03-23T07:36:39;16.30;91.90
49222;DHT22;35047;37.588;-122.048;2024-03-23T07:39:05;16.30;91.70
49222;DHT22;35047;37.588;-122.048;2024-03-23T07:41:31;16.30;91.70
49222;DHT22;35047;37.588;-122.048;2024-03-23T07:43:57;16.30;91.70
49222;DHT22;35047;37.588;-122.048;2024-03-23T07:46:23;16.30;91.50
49222;DHT22;35047;37.588;-122.048;2024-03-23T07:48:51;16.30;91.30
49222;DHT22;35047;37.588;-122.048;2024-03-23T07:51:21;16.30;91.50
49222;DHT22;35047;37.588;-122.048;2024-03-23T07:53:47;16.20;91.30
49222;DHT22;35047;37.588;-122.048;2024-03-23T07:56:14;16.20;91.30
49222;DHT22;35047;37.588;-122.048;2024-03-23T07:58:40;16.20;91.40
49222;DHT22;35047;37.588;-122.048;2024-03-23T08:01:07;16.20;91.30
49222;DHT22;35047;37.588;-122.048;2024-03-23T08:03:34;16.10;91.30
49222;DHT22;35047;37.588;-122.048;2024-03-23T08:06:09;16.10;91.30
49222;DHT22;35047;37.588;-122.048;2024-03-23T08:08:35;16.00;91.30
49222;DHT22;35047;37.588;-122.048;2024-03-23T08:11:01;16.00;91.50
49222;DHT22;35047;37.588;-122.048;2024-03-23T08:13:29;16.00;91.60
49222;DHT22;35047;37.588;-122.048;2024-03-23T08:16:02;16.00;91.50
49222;DHT22;35047;37.588;-122.048;2024-03-23T08:18:29;15.90;91.20
49222;DHT22;35047;37.588;-122.048;2024-03-23T08:20:56;15.90;91.20
49222;DHT22;35047;37.588;-122.048;2024-03-23T08:23:27;15.80;91.20
49222;DHT22;35047;37.588;-122.048;2024-03-23T08:26:03;15.80;91.30
49222;DHT22;35047;37.588;-122.048;2024-03-23T08:28:29;15.70;91.50
49222;DHT22;35047;37.588;-122.048;2024-03-23T08:30:55;15.70;91.70
49222;DHT22;35047;37.588;-122.048;2024-03-23T08:33:22;15.70;91.60
49222;DHT22;35047;37.588;-122.048;2024-03-23T08:35:55;15.70;91.50
49222;DHT22;35047;37.588;-122.048;2024-03-23T08:38:22;15.70;91.60
49222;DHT22;35047;37.588;-122.048;2024-03-23T08:40:48;15.70;91.60
49222;DHT22;35047;37.588;-122.048;2024-03-23T08:43:14;15.70;91.60
49222;DHT22;35047;37.588;-122.048;2024-03-23T08:45:40;15.60;91.40
49222;DHT22;35047;37.588;-122.048;2024-03-23T08:48:06;15.60;91.30
49222;DHT22;35047;37.588;-122.048;2024-03-23T08:50:32;15.60;91.40
49222;DHT22;35047;37.588;-122.048;2024-03-23T08:52:58;15.60;91.60
49222;DHT22;35047;37.588;-122.048;2024-03-23T08:55:24;15.60;91.60
49222;DHT22;35047;37.588;-122.048;2024-03-23T08:57:50;15.50;91.80
49222;DHT22;35047;37.588;-122.048;2024-03-23T09:00:16;15.50;91.70
49222;DHT22;35047;37.588;-122.048;2024-03-23T09:02:42;15.50;91.80
49222;DHT22;35047;37.588;-122.048;2024-03-23T09:05:13;15.50;91.80
49222;DHT22;35047;37.588;-122.048;2024-03-23T09:07:39;15.60;91.80
49222;DHT22;35047;37.588;-122.048;2024-03-23T09:10:06;15.60;91.60
49222;DHT22;35047;37.588;-122.048;2024-03-23T09:12:33;15.50;91.40
49222;DHT22;35047;37.588;-122.048;2024-03-23T09:14:59;15.60;91.70
49222;DHT22;35047;37.588;-122.048;2024-03-23T09:17:25;15.60;91.50
49222;DHT22;35047;37.588;-122.048;2024-03-23T09:19:52;15.60;91.60
49222;DHT22;35047;37.588;-122.048;2024-03-23T09:22:18;15.60;91.70
49222;DHT22;35047;37.588;-122.048;2024-03-23T09:24:44;15.50;91.60
49222;DHT22;35047;37.588;-122.048;2024-03-23T09:27:10;15.50;91.60
49222;DHT22;35047;37.588;-122.048;2024-03-23T09:29:36;15.50;91.60
49222;DHT22;35047;37.588;-122.048;2024-03-23T09:32:02;15.50;91.80
49222;DHT22;35047;37.588;-122.048;2024-03-23T09:34:29;15.50;91.50
49222;DHT22;35047;37.588;-122.048;2024-03-23T09:36:55;15.40;91.60
49222;DHT22;35047;37.588;-122.048;2024-03-23T09:39:21;15.40;91.80
49222;DHT22;35047;37.588;-122.048;2024-03-23T09:41:47;15.40;91.80
49222;DHT22;35047;37.588;-122.048;2024-03-23T09:44:13;15.40;91.60
49222;DHT22;35047;37.588;-122.048;2024-03-23T09:46:39;15.30;91.60
49222;DHT22;35047;37.588;-122.048;2024-03-23T09:49:08;15.20;91.60
49222;DHT22;35047;37.588;-122.048;2024-03-23T09:51:37;15.20;91.70
49222;DHT22;35047;37.588;-122.048;2024-03-23T09:54:03;15.10;92.00
49222;DHT22;35047;37.588;-122.048;2024-03-23T09:56:29;15.10;92.10
49222;DHT22;35047;37.588;-122.048;2024-03-23T09:59:05;15.10;92.20
49222;DHT22;35047;37.588;-122.048;2024-03-23T10:01:32;15.10;92.10
49222;DHT22;35047;37.588;-122.048;2024-03-23T10:03:58;15.00;92.10
49222;DHT22;35047;37.588;-122.048;2024-03-23T10:06:24;15.00;92.30
49222;DHT22;35047;37.588;-122.048;2024-03-23T10:08:51;15.00;92.40
49222;DHT22;35047;37.588;-122.048;2024-03-23T10:11:18;15.00;92.60
49222;DHT22;35047;37.588;-122.048;2024-03-23T10:13:45;15.00;92.70
49222;DHT22;35047;37.588;-122.048;2024-03-23T10:16:23;15.00;93.10
49222;DHT22;35047;37.588;-122.048;2024-03-23T10:18:49;15.00;92.70
49222;DHT22;35047;37.588;-122.048;2024-03-23T10:21:15;15.00;92.60
49222;DHT22;35047;37.588;-122.048;2024-03-23T10:23:42;15.00;92.30
49222;DHT22;35047;37.588;-122.048;2024-03-23T10:26:24;15.00;92.20
49222;DHT22;35047;37.588;-122.048;2024-03-23T10:28:58;14.90;92.10
49222;DHT22;35047;37.588;-122.048;2024-03-23T10:31:33;14.90;92.00
49222;DHT22;35047;37.588;-122.048;2024-03-23T10:34:03;14.90;92.10
49222;DHT22;35047;37.588;-122.048;2024-03-23T10:36:30;14.80;92.10
49222;DHT22;35047;37.588;-122.048;2024-03-23T10:38:56;14.80;91.90
49222;DHT22;35047;37.588;-122.048;2024-03-23T10:41:28;14.80;92.00
49222;DHT22;35047;37.588;-122.048;2024-03-23T10:43:55;14.80;92.00
49222;DHT22;35047;37.588;-122.048;2024-03-23T10:46:21;14.80;92.30
49222;DHT22;35047;37.588;-122.048;2024-03-23T10:48:48;14.80;92.40
49222;DHT22;35047;37.588;-122.048;2024-03-23T10:51:14;14.80;92.60
49222;DHT22;35047;37.588;-122.048;2024-03-23T10:53:41;14.80;92.80
49222;DHT22;35047;37.588;-122.048;2024-03-23T10:56:07;14.90;92.60
49222;DHT22;35047;37.588;-122.048;2024-03-23T10:58:46;14.90;92.70
49222;DHT22;35047;37.588;-122.048;2024-03-23T11:01:14;14.80;92.20
49222;DHT22;35047;37.588;-122.048;2024-03-23T11:03:47;14.80;92.10
49222;DHT22;35047;37.588;-122.048;2024-03-23T11:08:58;14.80;92.70
49222;DHT22;35047;37.588;-122.048;2024-03-23T11:11:25;14.90;93.20
49222;DHT22;35047;37.588;-122.048;2024-03-23T11:13:52;14.90;93.30
49222;DHT22;35047;37.588;-122.048;2024-03-23T11:16:26;14.90;93.00
49222;DHT22;35047;37.588;-122.048;2024-03-23T11:21:53;14.90;92.50
49222;DHT22;35047;37.588;-122.048;2024-03-23T11:24:20;14.80;92.30
49222;DHT22;35047;37.588;-122.048;2024-03-23T11:26:48;14.90;92.40
49222;DHT22;35047;37.588;-122.048;2024-03-23T11:29:15;14.80;92.60
49222;DHT22;35047;37.588;-122.048;2024-03-23T11:31:48;14.80;92.50
49222;DHT22;35047;37.588;-122.048;2024-03-23T11:34:18;14.90;92.80
49222;DHT22;35047;37.588;-122.048;2024-03-23T11:36:44;14.90;92.90
49222;DHT22;35047;37.588;-122.048;2024-03-23T11:39:17;14.80;92.90
49222;DHT22;35047;37.588;-122.048;2024-03-23T11:41:50;14.80;93.20
49222;DHT22;35047;37.588;-122.048;2024-03-23T11:44:17;14.90;93.30
49222;DHT22;35047;37.588;-122.048;2024-03-23T11:46:43;14.90;93.20
49222;DHT22;35047;37.588;-122.048;2024-03-23T11:49:25;14.90;93.30
49222;DHT22;35047;37.588;-122.048;2024-03-23T11:51:52;14.90;93.10
49222;DHT22;35047;37.588;-122.048;2024-03-23T11:54:23;14.90;93.10
49222;DHT22;35047;37.588;-122.048;2024-03-23T11:57:02;14.90;93.00
49222;DHT22;35047;37.588;-122.048;2024-03-23T11:59:33;14.90;92.90
49222;DHT22;35047;37.588;-122.048;2024-03-23T12:02:00;14.90;93.50
49222;DHT22;35047;37.588;-122.048;2024-03-23T12:04:27;15.00;93.60
49222;DHT22;35047;37.588;-122.048;2024-03-23T12:07:12;15.00;93.60
49222;DHT22;35047;37.588;-122.048;2024-03-23T12:09:39;15.00;93.40
49222;DHT22;35047;37.588;-122.048;2024-03-23T12:12:07;15.00;93.20
49222;DHT22;35047;37.588;-122.048;2024-03-23T12:14:33;14.90;93.00
49222;DHT22;35047;37.588;-122.048;2024-03-23T12:17:12;14.90;92.80
49222;DHT22;35047;37.588;-122.048;2024-03-23T12:19:38;14.90;92.50
49222;DHT22;35047;37.588;-122.048;2024-03-23T12:22:05;14.80;92.50
49222;DHT22;35047;37.588;-122.048;2024-03-23T12:24:32;14.80;92.80
49222;DHT22;35047;37.588;-122.048;2024-03-23T12:27:05;14.70;92.60
49222;DHT22;35047;37.588;-122.048;2024-03-23T12:29:34;14.70;92.90
49222;DHT22;35047;37.588;-122.048;2024-03-23T12:32:00;14.70;92.90
49222;DHT22;35047;37.588;-122.048;2024-03-23T12:34:27;14.70;92.90
49222;DHT22;35047;37.588;-122.048;2024-03-23T12:36:53;14.70;92.80
49222;DHT22;35047;37.588;-122.048;2024-03-23T12:39:20;14.70;93.10
49222;DHT22;35047;37.588;-122.048;2024-03-23T12:41:48;14.70;93.30
49222;DHT22;35047;37.588;-122.048;2024-03-23T12:44:14;14.70;93.30
49222;DHT22;35047;37.588;-122.048;2024-03-23T12:46:41;14.70;93.40
49222;DHT22;35047;37.588;-122.048;2024-03-23T12:49:07;14.80;93.40
49222;DHT22;35047;37.588;-122.048;2024-03-23T12:51:34;14.80;93.40
49222;DHT22;35047;37.588;-122.048;2024-03-23T12:54:01;14.80;93.20
49222;DHT22;35047;37.588;-122.048;2024-03-23T12:56:27;14.80;93.00
49222;DHT22;35047;37.588;-122.048;2024-03-23T12:58:59;14.80;92.90
49222;DHT22;35047;37.588;-122.048;2024-03-23T13:01:25;14.90;92.80
49222;DHT22;35047;37.588;-122.048;2024-03-23T13:03:51;14.80;92.70
49222;DHT22;35047;37.588;-122.048;2024-03-23T13:06:18;14.80;92.60
49222;DHT22;35047;37.588;-122.048;2024-03-23T13:08:45;14.90;92.50
49222;DHT22;35047;37.588;-122.048;2024-03-23T13:11:11;14.90;92.50
49222;DHT22;35047;37.588;-122.048;2024-03-23T13:13:38;14.80;92.40
49222;DHT22;35047;37.588;-122.048;2024-03-23T13:16:04;14.90;92.50
49222;DHT22;35047;37.588;-122.048;2024-03-23T13:18:31;14.90;92.40
49222;DHT22;35047;37.588;-122.048;2024-03-23T13:20:58;14.90;92.50
49222;DHT22;35047;37.588;-122.048;2024-03-23T13:23:25;14.90;92.50
49222;DHT22;35047;37.588;-122.048;2024-03-23T13:25:54;14.90;92.40
49222;DHT22;35047;37.588;-122.048;2024-03-23T13:28:21;14.90;92.50
49222;DHT22;35047;37.588;-122.048;2024-03-23T13:30:53;14.90;92.50
49222;DHT22;35047;37.588;-122.048;2024-03-23T13:33:20;14.90;92.70
49222;DHT22;35047;37.588;-122.048;2024-03-23T13:35:52;14.90;92.60
49222;DHT22;35047;37.588;-122.048;2024-03-23T13:38:18;14.80;92.40
49222;DHT22;35047;37.588;-122.048;2024-03-23T13:40:57;14.80;92.50
49222;DHT22;35047;37.588;-122.048;2024-03-23T13:43:24;14.80;92.80
49222;DHT22;35047;37.588;-122.048;2024-03-23T13:45:54;14.80;93.30
49222;DHT22;35047;37.588;-122.048;2024-03-23T13:48:21;14.80;93.20
49222;DHT22;35047;37.588;-122.048;2024-03-23T13:50:56;14.90;93.30
49222;DHT22;35047;37.588;-122.048;2024-03-23T13:53:22;14.90;93.30
49222;DHT22;35047;37.588;-122.048;2024-03-23T13:55:49;14.90;93.20
49222;DHT22;35047;37.588;-122.048;2024-03-23T13:58:15;14.90;93.60
49222;DHT22;35047;37.588;-122.048;2024-03-23T14:00:41;14.90;93.50
49222;DHT22;35047;37.588;-122.048;2024-03-23T14:03:11;14.90;93.40
49222;DHT22;35047;37.588;-122.048;2024-03-23T14:05:37;14.90;93.50
49222;DHT22;35047;37.588;-122.048;2024-03-23T14:08:07;14.90;93.60
49222;DHT22;35047;37.588;-122.048;2024-03-23T14:10:33;14.90;93.50
49222;DHT22;35047;37.588;-122.048;2024-03-23T14:12:59;15.00;93.30
49222;DHT22;35047;37.588;-122.048;2024-03-23T14:15:29;14.90;93.20
49222;DHT22;35047;37.588;-122.048;2024-03-23T14:17:56;14.90;93.20
49222;DHT22;35047;37.588;-122.048;2024-03-23T14:20:22;14.90;93.00
49222;DHT22;35047;37.588;-122.048;2024-03-23T14:22:49;14.90;93.00
49222;DHT22;35047;37.588;-122.048;2024-03-23T14:25:15;14.80;93.10
49222;DHT22;35047;37.588;-122.048;2024-03-23T14:27:45;14.90;93.00
49222;DHT22;35047;37.588;-122.048;2024-03-23T14:30:11;14.90;93.20
49222;DHT22;35047;37.588;-122.048;2024-03-23T14:32:40;14.90;93.30
49222;DHT22;35047;37.588;-122.048;2024-03-23T14:35:06;14.90;93.30
49222;DHT22;35047;37.588;-122.048;2024-03-23T14:37:38;14.90;93.50
49222;DHT22;35047;37.588;-122.048;2024-03-23T14:40:05;14.90;93.60
49222;DHT22;35047;37.588;-122.048;2024-03-23T14:42:32;14.90;93.50
49222;DHT22;35047;37.588;-122.048;2024-03-23T14:44:58;14.90;93.40
49222;DHT22;35047;37.588;-122.048;2024-03-23T14:47:24;14.90;93.50
49222;DHT22;35047;37.588;-122.048;2024-03-23T14:49:50;14.90;93.60
49222;DHT22;35047;37.588;-122.048;2024-03-23T14:52:16;14.90;93.40
49222;DHT22;35047;37.588;-122.048;2024-03-23T14:54:44;14.90;93.40
49222;DHT22;35047;37.588;-122.048;2024-03-23T14:57:10;14.90;93.50
49222;DHT22;35047;37.588;-122.048;2024-03-23T14:59:36;14.90;93.60
49222;DHT22;35047;37.588;-122.048;2024-03-23T15:02:06;14.90;93.60
49222;DHT22;35047;37.588;-122.048;2024-03-23T15:04:32;14.90;93.60
49222;DHT22;35047;37.588;-122.048;2024-03-23T15:06:59;15.00;94.00
49222;DHT22;35047;37.588;-122.048;2024-03-23T15:09:25;15.00;94.00
49222;DHT22;35047;37.588;-122.048;2024-03-23T15:11:52;15.00;94.10
49222;DHT22;35047;37.588;-122.048;2024-03-23T15:14:20;15.10;94.10
49222;DHT22;35047;37.588;-122.048;2024-03-23T15:16:46;15.10;93.80
49222;DHT22;35047;37.588;-122.048;2024-03-23T15:19:15;15.10;93.90
49222;DHT22;35047;37.588;-122.048;2024-03-23T15:21:43;15.10;93.70
49222;DHT22;35047;37.588;-122.048;2024-03-23T15:24:09;15.00;93.50
49222;DHT22;35047;37.588;-122.048;2024-03-23T15:26:38;15.10;93.70
49222;DHT22;35047;37.588;-122.048;2024-03-23T15:29:04;15.10;93.90
49222;DHT22;35047;37.588;-122.048;2024-03-23T15:31:38;15.10;93.70
49222;DHT22;35047;37.588;-122.048;2024-03-23T15:34:04;15.10;93.70
49222;DHT22;35047;37.588;-122.048;2024-03-23T15:36:30;15.10;93.80
49222;DHT22;35047;37.588;-122.048;2024-03-23T15:38:57;15.10;93.80
49222;DHT22;35047;37.588;-122.048;2024-03-23T15:41:23;15.20;93.60
49222;DHT22;35047;37.588;-122.048;2024-03-23T15:43:50;15.10;93.50
49222;DHT22;35047;37.588;-122.048;2024-03-23T15:46:16;15.10;93.50